Strona główna
METAR-TAF:

METAR-TAF

Lotnisko :

Port lotniczy Kunovice

Uherské Hradiště, Czechy

Szerokość geograficzna: 49-01-46N, Długość geograficzna: 017-26-23E, wysokość: 177 m

Aktualna obserwacja pogody

Raport powstał 20 godziny i 1 minut temu, godzina 14:00 UTC
Wiatr 4 kt od południowy zachód, zmienny między południe i północny zachód
Temperatura 31°C
Wilgotność 26%
Ciśnienie 1014 hPa
Widzialność 10 km lub więcej
Brak chmur poniżej 1500 m i brak chmur cumulonimbus

METAR: LKKU 171400Z 23004KT 170V310 CAVOK 31/09 Q1014

czas: 12:01 (10:01 UTC)


TAF: brakujący

Obserwacja i prognoza pogody dla ponad 4000 lotnisk (raport METAR i TAF).

Dostępne stacje oznaczono żółtymi i czerwonymi punktami na mapie.

Najedź kursorem aby zobaczyć nazwę stacji.

Kliknij aby zobaczyć obserwacje i prognozy pogody.

Aby zmienić mapę: kliknij na zielony przycisk z czarnym krzyżykiem, aby powiększyć; na zielony przycisk z myślnikiem, aby pomniejszyć; na zielone strzałki, aby przejść do map sąsiednich.


METAR-TAF: